Aeroporto :
LOGIN :

Iscrizione | Disclaimer

   EN    FR    IT 

 










Sommario :    VFR   VFR Marginale   IFR   IFR Intensivo   IFR Molto Intensivo
Visibilità : 
Base nubi : 
>= 8 km
>= 3000ft
5 / 8 km
1000 / 3000 ft
1500m / 5 km
500 / 1000 ft
800 / 1500m
200 / 500 ft
< 800m
< 200 ft
Simboli :   Temporali  Nebbia  Neve Forte  Precipitazioni Forti  Vento > 20 kt
SIGMETs :   Varie  Temporali  Ghiacco  Turbolenza  Onda orograficha  Ceneri Vulcaniche






- Altitudine del aeroporto : 1766 ft


ETHL - Laupheim AB

ULTIMO METAR :
  • 201820Z 22005KT 9999 FEW040 05/00 Q1018 BLU+BLU+

METARs OBSOLETI :
  • 201720Z 24008KT 9999 FEW030 07/01 Q1018 BLU+BLU+
  • 201620Z 23009KT 9999 FEW030 08/01 Q1018 BLU+BLU+

TAF TAF ETHL
Valido dal 20 a 18 ore il 21 a 03 ore UTC


201720Z 2018/2103 23012KT 9999 NSW FEW030 SCT260
TEMPO 2023/2101 24010G20KT 9999 NSW SCT030 BKN250
BECMG 2101/2103 26010G20KT 7000 -RA SCT015 BKN025



MetMap, La meteo Aeronautica in un colpo d'occhio ! - Copyright ORBIFLY Dicembre 2007 - Disclaimer

ORBIFLY MET'MAP TEAM :

Programmazione e sviluppo : Alexandra Zaïnal
Concezione : Baudouin d'Aumeries
Aiuto per la programmazione : Marc-Olivier Méhu
Supporto tecnico e logistico : Manuel Goepfert
Aiuto per la traduzione : Arnaldo La Scala

Contatto : metmap@orbifly.com




FONTI E CREDITI :

   NOAA